LEAM Airport Information

Runway Information
Runway 08 Length 10499 ft width 148 ft
Elevation 26 ft Threshold 492 ft Heading 73
Runway 26 Length 10499 ft Width 148 ft
Elevation 70 ft Threshold 0 ft Heading 253
Airport Frequencies
Type APP Name APP Frequency 118.35 MHZ
Type GND Name GND Frequency 121.7 MHZ
Type TWR Name TWR Frequency 118.35 MHZ
Airport Navaids
Type NDB Name Almeria Frequency 284 KHZ
Type NDB Name Almeria Frequency 310 KHZ
Type VOR-DME Name Almeria Frequency 114100 KHZ
Airport Weather Information & NOTAM
ADDS - METARS form results

(1902 UTC 22 June 2018)
 
METAR text: LEAM 221830Z 09013KT 060V120 CAVOK 30/13 Q1015
Conditions at: LEAM (ALMERIA AIRPORT , ES) observed 1830 UTC 22 June 2018
Temperature: 30.0°C (86°F)
Dewpoint: 13.0°C (55°F) [RH = 35%]
Pressure (altimeter): 29.97 inches Hg (1015.0 mb)
Winds: from the E (90 degrees) at 15 MPH (13 knots; 6.8 m/s)
Visibility: 6 or more miles (10+ km)
Ceiling: ceiling and visibility are OK
Clouds: unknown
Weather: no significant weather observed at this time